createdAt,value
2023-04-19T00:02:09.196Z,100611.03
2023-04-19T00:07:09.047Z,100603.66
2023-04-19T00:12:12.421Z,100601.03
2023-04-19T00:17:12.007Z,100605.41
2023-04-19T00:22:11.614Z,100594.44
2023-04-19T00:27:13.196Z,100611.34
2023-04-19T00:32:12.872Z,100597.09
2023-04-19T00:37:12.902Z,100592.66
2023-04-19T00:42:14.469Z,100592.03
2023-04-19T00:47:18.221Z,100595.72
2023-04-19T00:52:18.640Z,100591.44
2023-04-19T00:57:20.441Z,100587.59
2023-04-19T01:02:23.437Z,100585.03
2023-04-19T01:07:23.539Z,100587.59
2023-04-19T01:12:24.628Z,100586.25
2023-04-19T01:17:30.629Z,100592.19
2023-04-19T01:22:32.297Z,100578.81
2023-04-19T01:27:31.768Z,100581.84
2023-04-19T01:32:31.533Z,100570.91
2023-04-19T01:37:32.340Z,100573.53
2023-04-19T01:42:33.480Z,100564.56
2023-04-19T01:47:37.431Z,100570.03
2023-04-19T01:52:40.603Z,100571.06
2023-04-19T01:57:41.217Z,100565.63
2023-04-19T02:02:41.334Z,100567.78
2023-04-19T02:07:42.366Z,100560.06
2023-04-19T02:12:44.291Z,100557.84
2023-04-19T02:17:44.023Z,100557.50
2023-04-19T02:22:46.176Z,100557.81
2023-04-19T02:27:45.620Z,100556.19
2023-04-19T02:32:45.017Z,100546.56
2023-04-19T02:37:46.395Z,100553.53
2023-04-19T02:42:45.915Z,100542.63
2023-04-19T02:47:47.330Z,100542.81
2023-04-19T02:52:51.058Z,100538.00
2023-04-19T02:57:52.846Z,100541.78
2023-04-19T03:02:52.652Z,100543.47
2023-04-19T03:07:53.719Z,100538.13
2023-04-19T03:12:53.036Z,100534.53
2023-04-19T03:17:53.407Z,100535.28
2023-04-19T03:22:56.245Z,100541.50
2023-04-19T03:27:58.023Z,100539.44
2023-04-19T03:33:17.505Z,100541.31
2023-04-19T03:38:18.665Z,100534.72
2023-04-19T03:43:19.347Z,100533.97
2023-04-19T03:48:19.463Z,100543.75
2023-04-19T03:53:23.854Z,100539.03
2023-04-19T03:58:26.811Z,100542.97
2023-04-19T04:03:34.462Z,100541.13
2023-04-19T04:08:38.604Z,100548.09
2023-04-19T04:13:39.080Z,100545.16
2023-04-19T04:18:48.095Z,100541.66
2023-04-19T04:23:53.894Z,100535.56
2023-04-19T04:29:13.431Z,100536.22
2023-04-19T04:34:21.703Z,100537.34
2023-04-19T04:39:41.948Z,100538.50
2023-04-19T04:44:45.532Z,100539.97
2023-04-19T04:49:46.523Z,100546.03
2023-04-19T04:55:00.135Z,100544.31
2023-04-19T05:00:07.130Z,100544.63
2023-04-19T05:05:15.959Z,100535.28
2023-04-19T05:10:17.320Z,100542.09
2023-04-19T05:15:20.178Z,100542.25
2023-04-19T05:20:26.884Z,100551.03
2023-04-19T05:25:36.635Z,100549.41
2023-04-19T05:30:39.863Z,100550.00
2023-04-19T05:35:39.810Z,100554.38
2023-04-19T05:40:42.652Z,100548.19
2023-04-19T05:45:42.152Z,100554.94
2023-04-19T05:50:44.062Z,100549.94
2023-04-19T05:56:05.985Z,100542.47
2023-04-19T06:01:07.656Z,100542.97
2023-04-19T06:06:07.805Z,100536.91
2023-04-19T06:11:20.286Z,100537.75
2023-04-19T06:16:24.509Z,100537.59
2023-04-19T06:21:40.611Z,100522.59
2023-04-19T06:26:41.292Z,100524.78
2023-04-19T06:31:40.163Z,100534.84
2023-04-19T06:36:39.254Z,100532.97
2023-04-19T06:41:38.142Z,100538.03
2023-04-19T06:46:40.822Z,100535.53
2023-04-19T06:51:40.813Z,100548.31
2023-04-19T06:56:45.908Z,100538.00
2023-04-19T07:01:46.273Z,100540.75
2023-04-19T07:06:49.392Z,100542.50
2023-04-19T07:11:48.611Z,100543.53
2023-04-19T07:16:50.758Z,100549.03
2023-04-19T07:21:50.428Z,100541.41
2023-04-19T07:26:49.217Z,100540.56
2023-04-19T07:31:49.684Z,100551.84
2023-04-19T07:36:48.504Z,100552.25
2023-04-19T07:41:47.474Z,100555.28
2023-04-19T07:46:46.638Z,100571.88
2023-04-19T07:51:50.165Z,100564.19
2023-04-19T07:56:53.726Z,100563.44
2023-04-19T08:01:53.365Z,100559.13
2023-04-19T08:06:54.237Z,100559.03
2023-04-19T08:11:53.773Z,100555.13
2023-04-19T08:21:55.819Z,100557.50
2023-04-19T08:26:55.204Z,100550.97
2023-04-19T08:31:54.185Z,100542.94
2023-04-19T08:37:03.595Z,100549.31
2023-04-19T08:42:13.356Z,100541.88
2023-04-19T08:47:30.684Z,100543.06
2023-04-19T08:52:32.195Z,100540.72
2023-04-19T08:57:33.878Z,100538.69
2023-04-19T09:02:47.660Z,100543.72
2023-04-19T09:07:48.062Z,100539.34
2023-04-19T09:13:03.919Z,100536.03
2023-04-19T09:18:06.389Z,100539.44
2023-04-19T09:23:06.851Z,100541.53
2023-04-19T09:28:14.080Z,100530.44
2023-04-19T09:33:12.969Z,100534.03
2023-04-19T09:38:12.968Z,100531.50
2023-04-19T09:43:45.298Z,100524.34
2023-04-19T09:48:32.107Z,100528.31
2023-04-19T09:53:34.642Z,100525.97
2023-04-19T09:58:48.969Z,100525.69
2023-04-19T10:03:55.798Z,100522.47
2023-04-19T10:08:56.839Z,100515.19
2023-04-19T10:14:00.894Z,100507.69
2023-04-19T10:19:00.412Z,100522.88
2023-04-19T10:24:01.110Z,100511.94
2023-04-19T10:29:01.497Z,100510.69
2023-04-19T10:34:00.816Z,100509.34
2023-04-19T10:38:59.632Z,100511.41
2023-04-19T10:44:12.727Z,100511.19
2023-04-19T10:49:13.811Z,100510.59
2023-04-19T10:54:31.982Z,100510.34
2023-04-19T10:59:33.099Z,100512.00
2023-04-19T11:05:05.672Z,100509.69
2023-04-19T11:10:04.613Z,100510.41
2023-04-19T11:15:06.920Z,100508.06
2023-04-19T11:20:08.674Z,100505.25
2023-04-19T11:25:17.171Z,100499.69
2023-04-19T11:30:32.529Z,100500.00
2023-04-19T11:35:32.710Z,100496.78
2023-04-19T11:40:32.222Z,100483.59
2023-04-19T11:45:38.101Z,100480.22
2023-04-19T11:50:39.671Z,100480.53
2023-04-19T11:55:39.138Z,100460.44
2023-04-19T12:00:39.737Z,100449.03
2023-04-19T12:05:39.423Z,100454.53
2023-04-19T12:10:38.463Z,100439.19
2023-04-19T12:15:49.333Z,100432.66
2023-04-19T12:20:50.062Z,100418.34
2023-04-19T12:25:50.363Z,100403.84
2023-04-19T12:30:50.680Z,100403.75
2023-04-19T12:35:50.697Z,100385.91
2023-04-19T12:40:50.378Z,100386.13
2023-04-19T12:45:51.044Z,100368.69
2023-04-19T12:50:50.208Z,100363.09
2023-04-19T12:55:50.261Z,100373.88
2023-04-19T13:00:53.235Z,100363.88
2023-04-19T13:05:52.258Z,100361.28
2023-04-19T13:10:52.743Z,100359.31
2023-04-19T13:15:55.765Z,100367.66
2023-04-19T13:20:56.684Z,100345.16
2023-04-19T13:25:58.681Z,100353.03
2023-04-19T13:30:59.034Z,100349.69
2023-04-19T13:35:58.020Z,100347.66
2023-04-19T13:40:58.580Z,100342.53
2023-04-19T13:45:59.064Z,100339.94
2023-04-19T13:50:58.733Z,100332.28
2023-04-19T13:55:58.050Z,100333.00
2023-04-19T14:01:07.173Z,100330.41
2023-04-19T14:06:06.689Z,100329.66
2023-04-19T14:11:08.552Z,100321.47
2023-04-19T14:16:10.173Z,100326.59
2023-04-19T14:21:14.257Z,100324.84
2023-04-19T14:26:15.946Z,100331.06
2023-04-19T14:31:16.599Z,100317.88
2023-04-19T14:36:16.636Z,100316.34
2023-04-19T14:41:15.907Z,100324.84
2023-04-19T14:46:58.402Z,100322.53
2023-04-19T14:51:59.384Z,100310.19
2023-04-19T14:57:02.422Z,100319.09
2023-04-19T15:02:02.726Z,100321.31
2023-04-19T15:07:01.831Z,100323.53
2023-04-19T15:12:01.407Z,100324.91
2023-04-19T15:17:00.442Z,100333.63
2023-04-19T15:22:00.795Z,100333.88
2023-04-19T15:27:00.334Z,100336.25
2023-04-19T15:31:59.611Z,100329.06
2023-04-19T15:36:58.652Z,100325.75
2023-04-19T15:41:59.066Z,100329.81
2023-04-19T15:46:58.065Z,100325.47
2023-04-19T15:51:59.092Z,100321.00
2023-04-19T15:56:59.411Z,100320.03
2023-04-19T16:01:58.530Z,100321.94
2023-04-19T16:07:33.312Z,100325.53
2023-04-19T16:12:33.825Z,100320.78
2023-04-19T16:17:32.819Z,100312.88
2023-04-19T16:22:33.157Z,100322.38
2023-04-19T16:27:33.677Z,100323.28
2023-04-19T16:32:33.056Z,100316.59
2023-04-19T16:37:32.299Z,100321.44
2023-04-19T16:42:44.165Z,100329.34
2023-04-19T16:47:46.475Z,100334.84
2023-04-19T16:52:46.083Z,100336.81
2023-04-19T16:57:45.251Z,100337.72
2023-04-19T17:02:48.832Z,100338.59
2023-04-19T17:07:47.967Z,100341.00
2023-04-19T17:12:46.951Z,100344.50
2023-04-19T17:17:47.654Z,100343.25
2023-04-19T17:22:46.642Z,100353.09
2023-04-19T17:27:47.796Z,100361.22
2023-04-19T17:32:54.884Z,100354.75
2023-04-19T17:37:54.654Z,100366.25
2023-04-19T17:42:53.578Z,100371.69
2023-04-19T17:47:58.309Z,100380.63
2023-04-19T17:52:59.214Z,100386.56
2023-04-19T17:57:58.393Z,100388.47
2023-04-19T18:02:59.621Z,100389.72
2023-04-19T18:08:01.581Z,100413.38
2023-04-19T18:13:00.575Z,100421.84
2023-04-19T18:18:00.980Z,100428.53
2023-04-19T18:23:03.268Z,100426.47
2023-04-19T18:28:06.622Z,100438.38
2023-04-19T18:33:14.338Z,100446.63
2023-04-19T18:38:13.415Z,100456.66
2023-04-19T18:43:12.298Z,100461.19
2023-04-19T18:48:12.680Z,100473.25
2023-04-19T18:53:11.571Z,100468.00
2023-04-19T19:08:46.182Z,100449.69
2023-04-19T19:20:10.902Z,100439.66
2023-04-19T19:25:10.402Z,100445.34
2023-04-19T19:30:10.393Z,100441.63
2023-04-19T19:35:11.617Z,100445.50
2023-04-19T19:40:12.532Z,100440.94
2023-04-19T19:45:13.627Z,100443.81
2023-04-19T19:51:01.066Z,100449.13
2023-04-19T19:55:33.987Z,100447.06
2023-04-19T20:00:44.500Z,100448.53
2023-04-19T20:05:46.909Z,100466.38
2023-04-19T20:10:46.316Z,100457.09
2023-04-19T20:15:47.498Z,100463.47
2023-04-19T20:20:50.242Z,100470.09
2023-04-19T20:25:52.422Z,100464.53
2023-04-19T20:30:51.335Z,100469.50
2023-04-19T20:35:53.701Z,100467.75
2023-04-19T20:40:52.936Z,100466.66
2023-04-19T20:45:51.905Z,100459.53
2023-04-19T20:50:52.329Z,100462.94
2023-04-19T20:55:51.278Z,100463.66
2023-04-19T21:00:51.032Z,100462.09
2023-04-19T21:05:51.470Z,100463.66
2023-04-19T21:10:50.418Z,100451.97
2023-04-19T21:15:49.377Z,100463.31
2023-04-19T21:20:48.446Z,100460.66
2023-04-19T21:25:49.180Z,100460.66
2023-04-19T21:30:49.985Z,100472.22
2023-04-19T21:35:49.428Z,100467.41
2023-04-19T21:40:50.077Z,100462.09
2023-04-19T21:45:48.961Z,100460.97
2023-04-19T21:50:47.950Z,100464.72
2023-04-19T21:55:51.030Z,100458.56
2023-04-19T22:00:50.144Z,100451.69
2023-04-19T22:05:49.391Z,100449.50
2023-04-19T22:10:50.539Z,100450.81
2023-04-19T22:15:50.946Z,100447.91
2023-04-19T22:20:51.040Z,100456.00
2023-04-19T22:25:50.276Z,100460.34
2023-04-19T22:30:52.727Z,100467.31
2023-04-19T22:35:51.820Z,100467.31
2023-04-19T22:40:51.144Z,100472.59
2023-04-19T22:45:53.002Z,100472.25
2023-04-19T22:50:53.694Z,100466.53
2023-04-19T22:55:54.793Z,100469.56
2023-04-19T23:00:55.395Z,100459.63
2023-04-19T23:05:54.459Z,100464.19
2023-04-19T23:10:53.953Z,100460.56
2023-04-19T23:15:54.585Z,100460.44
2023-04-19T23:20:53.518Z,100452.97
2023-04-19T23:25:52.507Z,100458.28
2023-04-19T23:30:51.376Z,100453.81
2023-04-19T23:35:52.196Z,100449.47
2023-04-19T23:40:51.034Z,100446.22
2023-04-19T23:45:49.965Z,100444.41
2023-04-19T23:50:48.870Z,100440.78
2023-04-19T23:55:49.330Z,100447.06
